Αναφορές METAR Αεροδρομίων

 

LGTS - THESSALONIKI - GREECE
Ενημερώθηκε: 24/04/2018 20:50
Αραιές Νεφώσεις
Αραιές Νεφώσεις
 Ανεμος από varies
Ανεμος: varies 6 km/h
Θερμοκρασία: 21°C
Σημ. Δρόσου: 9°C
Υγρασία: 46%
Βαρόμετρο: 1014 hPa
Clouds: Αραιές Νεφώσεις
Visibility: 10 km
Cloud details: Αραιές Νεφώσεις 762 m
2018/04/24 17:50 LGTS 241750Z VRB03KT 9999 FEW025 21/09 Q1014 NOSIG
LGLR - LARTISA - GREECE
Ενημερώθηκε: 24/04/2018 20:50
Αραιές Νεφώσεις
Αραιές Νεφώσεις
 Ανεμος από Α
Ανεμος: Α 11 km/h
Θερμοκρασία: 21°C
Σημ. Δρόσου: 10°C
Υγρασία: 50%
Βαρόμετρο: 1013 hPa
Clouds: Αραιές Νεφώσεις
Visibility: 10 km
Cloud details: Αραιές Νεφώσεις 1219 m
2018/04/24 17:50 LGLR 241750Z 09006KT 9999 FEW040 21/10 Q1013 RMK SCT180 BLU
 
LGKZ - KOZANI - GREECE
Ενημερώθηκε: 24/04/2018 14:50
NOT Current
Αραιές Νεφώσεις
Αραιές Νεφώσεις
 Ανεμος από calm
Ανεμος: Απνοια
Θερμοκρασία: 26°C
Σημ. Δρόσου: 10°C
Υγρασία: 37%
Βαρόμετρο: 1018 hPa
Clouds: Αραιές Νεφώσεις
Visibility: 10 km
Cloud details: Αραιές Νεφώσεις 762 m
2018/04/24 11:50 LGKZ 241150Z 00000KT 9999 FEW025 26/10 Q1018
LGKV - KAVALA - GREECE
Ενημερώθηκε: 24/04/2018 20:50
Αραιές Νεφώσεις
Αραιές Νεφώσεις
 Ανεμος από ΑΒΑ
Ανεμος: ΑΒΑ 7 km/h
Θερμοκρασία: 19°C
Σημ. Δρόσου: 14°C
Υγρασία: 73%
Βαρόμετρο: 1013 hPa
Clouds: Αραιές Νεφώσεις
Visibility: 10 km
Cloud details: Αραιές Νεφώσεις 762 m
2018/04/24 17:50 LGKV 241750Z 07004KT 9999 FEW025 19/14 Q1013
 
LGIO - IOANNINA - GREECE
Ενημερώθηκε: 24/04/2018 20:50
Αραιές Νεφώσεις
Αραιές Νεφώσεις
 Ανεμος από varies
Ανεμος: varies 0 km/h
Θερμοκρασία: 19°C
Σημ. Δρόσου: 14°C
Υγρασία: 73%
Βαρόμετρο: 1018 hPa
Clouds: Αραιές Νεφώσεις
Visibility: 10 km
Cloud details: Αραιές Νεφώσεις 1219 m
2018/04/24 17:50 LGIO 241750Z /////KT 9999 FEW040 19/14 Q1018
LGBL - BOLOS - GREECE
Ενημερώθηκε: 24/04/2018 20:50
Αραιές Νεφώσεις
Αραιές Νεφώσεις
 Ανεμος από Β
Ανεμος: Β 9 km/h
Θερμοκρασία: 18°C
Σημ. Δρόσου: 11°C
Υγρασία: 64%
Βαρόμετρο: 1014 hPa
Clouds: Αραιές Νεφώσεις
Visibility: 10 km
Cloud details: Αραιές Νεφώσεις 1067 m
2018/04/24 17:50 LGBL 241750Z 35005KT 9999 FEW035 18/11 Q1014
 
LGMT - MITILINI - GREECE
Ενημερώθηκε: 24/04/2018 20:50
Αίθριος
Αίθριος
 Ανεμος από ΝΔ
Ανεμος: ΝΔ 7 km/h
Θερμοκρασία: 22°C
Σημ. Δρόσου: 11°C
Υγρασία: 50%
Βαρόμετρο: 1014 hPa
Περίληψη: Αίθριος
Visibility: greater than 10 km
2018/04/24 17:50 LGMT 241750Z 23004KT CAVOK 22/11 Q1014
LGAV - ATHENS - GREECE
Ενημερώθηκε: 24/04/2018 20:50
Αίθριος
Αίθριος
 Ανεμος από Ν
Ανεμος: Ν 7 km/h
Θερμοκρασία: 18°C
Σημ. Δρόσου: 12°C
Υγρασία: 68%
Βαρόμετρο: 1015 hPa
Περίληψη: Αίθριος
Visibility: greater than 10 km
2018/04/24 17:50 LGAV 241750Z 18004KT CAVOK 18/12 Q1015 NOSIG
 
LGRP - RODOS - GREECE
Ενημερώθηκε: 24/04/2018 20:50
Αραιές Νεφώσεις
Αραιές Νεφώσεις
 Ανεμος από ΔΝΔ
Ανεμος: ΔΝΔ 20 km/h
Θερμοκρασία: 19°C
Σημ. Δρόσου: 15°C
Υγρασία: 78%
Βαρόμετρο: 1014 hPa
Clouds: Αραιές Νεφώσεις
Visibility: 10 km
Cloud details: Αραιές Νεφώσεις 762 m
2018/04/24 17:50 LGRP 241750Z 24011KT 9999 FEW025 19/15 Q1014 NOSIG
LGIR - HRAKLIO/KRITI - GREECE
Ενημερώθηκε: 24/04/2018 20:50
Αίθριος
Αίθριος
 Ανεμος από ΝΝΔ
Ανεμος: ΝΝΔ 6 km/h
Θερμοκρασία: 17°C
Σημ. Δρόσου: 13°C
Υγρασία: 77%
Βαρόμετρο: 1016 hPa
Περίληψη: Αίθριος
Visibility: greater than 10 km
2018/04/24 17:50 LGIR 241750Z 20003KT CAVOK 17/13 Q1016 NOSIG
 
LGMK - MIKONOS - GREECE
Ενημερώθηκε: 24/04/2018 20:50
Αίθριος
Αίθριος
 Ανεμος από calm
Ανεμος: Απνοια
Θερμοκρασία: 19°C
Σημ. Δρόσου: 10°C
Υγρασία: 56%
Βαρόμετρο: 1015 hPa
Περίληψη: Αίθριος
Visibility: greater than 10 km
2018/04/24 17:50 LGMK 241750Z 00000KT CAVOK 19/10 Q1015
LGKR - KERKIRA - GREECE
Ενημερώθηκε: 24/04/2018 20:50
Αίθριος
Αίθριος
 Ανεμος από calm
Ανεμος: Απνοια
Θερμοκρασία: 20°C
Σημ. Δρόσου: 18°C
Υγρασία: 88%
Βαρόμετρο: 1016 hPa
Περίληψη: Αίθριος
Visibility: greater than 10 km
2018/04/24 17:50 LGKR 241750Z 00000KT CAVOK 20/18 Q1016 NOSIG